Time;durP1;ratioP1;P1;durP2;ratioP2;P2;SDS_P1;SDS_P2;PMS_P1;PMS_P2;Temp;Humidity;BMP_temperature;BMP_pressure;BME280_temperature;BME280_humidity;BME280_pressure;Samples;Min_cycle;Max_cycle;Signal;HPM_P1;HPM_P2
2022/10/10 00:01:40;;;;;;;;;;;;;;;19.26;49.90;95877.59;6101637;19;1522;-78
2022/10/10 00:03:46;;;;;;;;;;;;;;;19.26;49.62;95870.44;6082263;19;1327;-78
2022/10/10 00:05:50;;;;;;;;;;;;;;;19.25;49.94;95868.78;6101143;19;1045;-79
2022/10/10 00:07:54;;;;;;;;;;;;;;;19.26;49.86;95870.44;6102202;19;1508;-78
2022/10/10 00:09:57;;;;;;;;;;;;;;;19.25;49.89;95871.44;6100509;19;1169;-78
2022/10/10 00:12:00;;;;;;;;;;;;;;;19.24;49.91;95872.47;6103395;19;1383;-78
2022/10/10 00:14:04;;;;;;;;;;;;;;;19.26;49.79;95875.75;6096349;19;1515;-78
2022/10/10 00:16:07;;;;;;;;;;;;;;;19.24;49.71;95875.13;6091376;19;1190;-78
2022/10/10 00:18:11;;;;;;;;;;;;;;;19.25;49.57;95882.13;6099177;19;1370;-78
2022/10/10 00:20:18;;;;;;;;;;;;;;;19.24;50.04;95883.13;6093594;19;1857;-79
2022/10/10 00:22:21;;;;;;;;;;;;;;;19.24;49.76;95877.81;6103964;19;1421;-79
2022/10/10 00:24:24;;;;;;;;;;;;;;;19.24;49.91;95874.31;6103461;19;1560;-79
2022/10/10 00:26:28;;;;;;;;;;;;;;;19.24;49.85;95869.00;6082869;19;1488;-79
2022/10/10 00:28:31;;;;;;;;;;;;;;;19.24;49.64;95872.47;6107914;19;1388;-78
2022/10/10 00:30:35;;;;;;;;;;;;;;;19.23;49.73;95870.81;6104340;19;1401;-78
2022/10/10 00:32:38;;;;;;;;;;;;;;;19.24;49.67;95872.47;6102772;19;1248;-78
2022/10/10 00:34:42;;;;;;;;;;;;;;;19.23;49.72;95862.81;6099991;19;1531;-78
2022/10/10 00:36:48;;;;;;;;;;;;;;;19.22;49.74;95869.16;6094668;19;1503;-78
2022/10/10 00:38:51;;;;;;;;;;;;;;;19.24;49.55;95866.31;6089263;19;1849;-78
2022/10/10 00:40:55;;;;;;;;;;;;;;;19.24;49.68;95871.66;6092635;19;1524;-78
2022/10/10 00:42:59;;;;;;;;;;;;;;;19.24;49.88;95866.31;6102850;19;1436;-79
2022/10/10 00:45:17;;;;;;;;;;;;;;;19.23;50.01;95865.47;6103153;19;1421;-79
2022/10/10 00:47:21;;;;;;;;;;;;;;;19.24;49.96;95864.47;6102307;19;1488;-78
2022/10/10 00:49:27;;;;;;;;;;;;;;;19.23;49.86;95865.47;6080393;19;1376;-78
2022/10/10 00:51:30;;;;;;;;;;;;;;;19.23;49.85;95873.47;6096985;19;1679;-78
2022/10/10 00:53:40;;;;;;;;;;;;;;;19.22;50.03;95874.47;6101765;19;1658;-79
2022/10/10 00:55:44;;;;;;;;;;;;;;;19.23;50.08;95870.81;6101170;19;1422;-79
2022/10/10 00:57:47;;;;;;;;;;;;;;;19.23;50.04;95876.13;6103962;19;1399;-79
2022/10/10 00:59:52;;;;;;;;;;;;;;;19.24;50.04;95877.81;6091752;19;1830;-79
2022/10/10 01:01:55;;;;;;;;;;;;;;;19.26;50.12;95882.94;6084862;19;1493;-79
2022/10/10 01:03:59;;;;;;;;;;;;;;;19.25;49.99;95878.63;6101673;19;1430;-79
2022/10/10 01:06:03;;;;;;;;;;;;;;;19.25;49.85;95884.78;6100562;19;1500;-78
2022/10/10 01:08:07;;;;;;;;;;;;;;;19.25;49.79;95881.28;6100744;19;1609;-79
2022/10/10 01:10:15;;;;;;;;;;;;;;;19.24;49.62;95880.47;6100778;19;1500;-78
2022/10/10 01:12:22;;;;;;;;;;;;;;;19.25;49.91;95884.78;6076264;19;1441;-79
2022/10/10 01:14:32;;;;;;;;;;;;;;;19.24;49.86;95883.13;6098453;19;1467;-79
2022/10/10 01:16:39;;;;;;;;;;;;;;;19.24;49.80;95887.63;6102670;19;1519;-79
2022/10/10 01:18:49;;;;;;;;;;;;;;;19.24;49.76;95888.47;6101781;19;1842;-79
2022/10/10 01:20:59;;;;;;;;;;;;;;;19.24;49.78;95896.44;6101723;19;1427;-79
2022/10/10 01:23:20;;;;;;;;;;;;;;;19.24;49.72;95893.78;6075444;19;1347;-77
2022/10/10 01:25:30;;;;;;;;;;;;;;;19.26;49.79;95888.25;6100703;19;1523;-79
2022/10/10 01:27:36;;;;;;;;;;;;;;;19.25;50.18;95884.78;6110268;19;1493;-77
2022/10/10 01:29:44;;;;;;;;;;;;;;;19.26;49.86;95890.94;6107935;19;1536;-78
2022/10/10 01:31:50;;;;;;;;;;;;;;;19.27;50.00;95890.75;6107974;19;1532;-78
2022/10/10 01:33:56;;;;;;;;;;;;;;;19.26;50.24;95886.41;6093831;19;1444;-78
2022/10/10 01:36:05;;;;;;;;;;;;;;;19.27;50.46;95893.44;6098905;19;1559;-76
2022/10/10 01:38:16;;;;;;;;;;;;;;;19.35;49.71;95887.16;6111566;19;1543;-79
2022/10/10 01:40:25;;;;;;;;;;;;;;;19.49;49.72;95893.53;6103639;19;1845;-86
2022/10/10 01:42:32;;;;;;;;;;;;;;;19.56;49.55;95894.50;6100981;19;1450;-82
2022/10/10 01:44:36;;;;;;;;;;;;;;;19.51;49.25;95888.84;6096061;19;1524;-84
2022/10/10 01:46:42;;;;;;;;;;;;;;;19.49;49.48;95885.53;6083132;19;1436;-84
2022/10/10 01:48:46;;;;;;;;;;;;;;;19.45;49.75;95893.06;6102862;19;1548;-84
2022/10/10 01:51:01;;;;;;;;;;;;;;;19.41;49.88;95889.94;6101379;19;1515;-84
2022/10/10 01:53:10;;;;;;;;;;;;;;;19.39;49.97;95875.16;6100507;19;1441;-84
2022/10/10 01:55:25;;;;;;;;;;;;;;;19.37;49.97;95877.16;6099594;19;1538;-85
2022/10/10 01:57:33;;;;;;;;;;;;;;;19.35;50.00;95874.69;6083000;19;1515;-84
2022/10/10 01:59:41;;;;;;;;;;;;;;;19.35;50.07;95874.69;6100267;19;1864;-82
2022/10/10 02:01:49;;;;;;;;;;;;;;;19.34;50.05;95878.34;6101517;19;1437;-83
2022/10/10 02:03:56;;;;;;;;;;;;;;;19.35;49.73;95882.69;6101311;19;1532;-83
2022/10/10 02:06:01;;;;;;;;;;;;;;;19.35;50.03;95884.50;6096548;19;1415;-83
2022/10/10 02:08:05;;;;;;;;;;;;;;;19.34;49.83;95881.00;6084535;19;1212;-84
2022/10/10 02:10:10;;;;;;;;;;;;;;;19.34;50.03;95878.34;6097607;19;1410;-84
2022/10/10 02:12:14;;;;;;;;;;;;;;;19.33;49.62;95884.69;6100153;19;1565;-83
2022/10/10 02:14:21;;;;;;;;;;;;;;;19.35;50.07;95884.50;6101362;19;1430;-84
2022/10/10 02:16:26;;;;;;;;;;;;;;;19.34;50.02;95885.53;6098014;19;1177;-83
2022/10/10 02:18:34;;;;;;;;;;;;;;;19.33;49.92;95884.69;6100973;19;1442;-84
2022/10/10 02:20:38;;;;;;;;;;;;;;;19.32;49.97;95880.38;6081761;19;1854;-84
2022/10/10 02:22:43;;;;;;;;;;;;;;;19.33;50.02;95887.38;6099753;19;1454;-83
2022/10/10 02:24:46;;;;;;;;;;;;;;;19.33;49.62;95892.69;6099286;19;1516;-83
2022/10/10 02:26:54;;;;;;;;;;;;;;;19.32;49.89;95888.38;6098857;19;1514;-83
2022/10/10 02:28:59;;;;;;;;;;;;;;;19.33;49.80;95892.69;6091483;19;1486;-83
2022/10/10 02:31:06;;;;;;;;;;;;;;;19.33;49.68;95892.69;6081879;19;1437;-83
2022/10/10 02:33:09;;;;;;;;;;;;;;;19.32;50.02;95893.72;6101826;19;1527;-83
2022/10/10 02:35:18;;;;;;;;;;;;;;;19.33;49.93;95886.53;6097311;19;1538;-84
2022/10/10 02:37:22;;;;;;;;;;;;;;;19.33;49.50;95891.88;6098781;19;1496;-84
2022/10/10 02:39:28;;;;;;;;;;;;;;;19.32;49.71;95899.03;6089654;19;1857;-83
2022/10/10 02:41:32;;;;;;;;;;;;;;;19.32;50.00;95893.72;6089554;19;1563;-83
2022/10/10 02:43:36;;;;;;;;;;;;;;;19.33;49.64;95892.69;6090059;19;1630;-82
2022/10/10 02:45:40;;;;;;;;;;;;;;;19.33;49.95;95895.34;6098326;19;1153;-82
2022/10/10 02:47:44;;;;;;;;;;;;;;;19.34;49.92;95891.66;6098815;19;1102;-82
2022/10/10 02:49:47;;;;;;;;;;;;;;;19.34;49.88;95889.00;6100387;19;1582;-82
2022/10/10 02:51:53;;;;;;;;;;;;;;;19.33;50.01;95892.69;6104685;19;1450;-84
2022/10/10 02:53:56;;;;;;;;;;;;;;;19.42;49.76;95893.44;6084835;19;1528;-82
2022/10/10 02:56:00;;;;;;;;;;;;;;;19.45;49.58;95895.72;6106524;19;1536;-84
2022/10/10 02:58:03;;;;;;;;;;;;;;;19.50;50.08;95895.19;6103896;19;1006;-81
2022/10/10 03:00:07;;;;;;;;;;;;;;;19.56;49.77;95891.81;6102317;19;1849;-84
2022/10/10 03:02:11;;;;;;;;;;;;;;;19.51;49.45;95894.16;6094586;19;1434;-82
2022/10/10 03:04:14;;;;;;;;;;;;;;;19.47;49.99;95898.22;6089368;19;1576;-83
2022/10/10 03:06:17;;;;;;;;;;;;;;;19.44;49.67;95889.56;6089610;19;1433;-82
2022/10/10 03:08:23;;;;;;;;;;;;;;;19.43;49.65;95897.75;6100128;19;1465;-81
2022/10/10 03:10:27;;;;;;;;;;;;;;;18.87;47.79;95895.44;6097377;19;1497;-78
2022/10/10 03:12:30;;;;;;;;;;;;;;;18.42;47.80;95891.75;6093912;19;1429;-81
2022/10/10 03:14:33;;;;;;;;;;;;;;;18.23;47.78;95892.22;6099705;19;1432;-80
2022/10/10 03:16:37;;;;;;;;;;;;;;;18.13;47.46;95896.94;6080478;19;1512;-79
2022/10/10 03:18:40;;;;;;;;;;;;;;;18.09;47.50;95894.59;6096420;19;1422;-77
2022/10/10 03:20:44;;;;;;;;;;;;;;;18.02;46.97;95901.63;6099546;19;1868;-78
2022/10/10 03:22:47;;;;;;;;;;;;;;;17.96;46.87;95902.34;6095766;19;1069;-79
2022/10/10 03:24:53;;;;;;;;;;;;;;;17.78;47.04;95904.38;6099026;19;1567;-80
2022/10/10 03:26:56;;;;;;;;;;;;;;;17.81;47.25;95902.22;6086077;19;1433;-78
2022/10/10 03:29:00;;;;;;;;;;;;;;;17.80;46.62;95905.88;6085895;19;1112;-79
2022/10/10 03:31:03;;;;;;;;;;;;;;;17.78;47.02;95915.03;6095984;19;1297;-77
2022/10/10 03:33:07;;;;;;;;;;;;;;;17.81;47.16;95909.34;6097382;19;998;-77
2022/10/10 03:35:10;;;;;;;;;;;;;;;17.77;46.98;95908.06;6092545;19;1466;-77
2022/10/10 03:37:14;;;;;;;;;;;;;;;17.86;47.02;95907.00;6101116;19;1091;-77
2022/10/10 03:39:17;;;;;;;;;;;;;;;17.91;46.97;95907.34;6080950;19;1500;-78
2022/10/10 03:41:23;;;;;;;;;;;;;;;17.94;46.77;95909.66;6100081;19;1909;-77
2022/10/10 03:43:26;;;;;;;;;;;;;;;17.85;46.95;95902.72;6098891;19;1478;-76
2022/10/10 03:45:30;;;;;;;;;;;;;;;17.87;46.56;95909.50;6101671;19;1204;-76
2022/10/10 03:47:33;;;;;;;;;;;;;;;17.79;47.11;95906.06;6108922;19;1575;-80
2022/10/10 03:49:37;;;;;;;;;;;;;;;17.76;47.14;95909.06;6093942;19;1455;-77
2022/10/10 03:51:40;;;;;;;;;;;;;;;17.51;47.48;95909.09;6084470;19;1456;-77
2022/10/10 03:53:43;;;;;;;;;;;;;;;17.39;47.55;95902.50;6102226;19;1507;-76
2022/10/10 03:55:47;;;;;;;;;;;;;;;17.50;47.56;95909.25;6096243;19;1505;-77
2022/10/10 03:57:53;;;;;;;;;;;;;;;17.56;47.19;95905.94;6104578;19;1425;-77
2022/10/10 03:59:56;;;;;;;;;;;;;;;17.47;46.71;95907.81;6105052;19;1842;-80
2022/10/10 04:02:01;;;;;;;;;;;;;;;17.46;46.93;95907.97;6082459;19;1529;-78
2022/10/10 04:04:04;;;;;;;;;;;;;;;17.41;46.70;95900.47;6101218;19;1331;-78
2022/10/10 04:06:08;;;;;;;;;;;;;;;17.40;46.53;95907.63;6096724;19;1496;-80
2022/10/10 04:08:11;;;;;;;;;;;;;;;17.35;46.87;95912.63;6106304;19;1333;-78
2022/10/10 04:10:14;;;;;;;;;;;;;;;17.37;46.74;95915.13;6106229;19;1483;-79
2022/10/10 04:12:18;;;;;;;;;;;;;;;17.33;46.76;95913.81;6105178;19;1362;-78
2022/10/10 04:14:24;;;;;;;;;;;;;;;17.19;46.43;95913.50;6083641;19;1450;-77
2022/10/10 04:16:27;;;;;;;;;;;;;;;17.19;46.90;95918.81;6105788;19;1524;-77
2022/10/10 04:18:31;;;;;;;;;;;;;;;17.20;46.52;95909.84;6101015;19;1121;-79
2022/10/10 04:20:34;;;;;;;;;;;;;;;17.19;46.70;95910.84;6103878;19;1838;-78
2022/10/10 04:22:37;;;;;;;;;;;;;;;17.16;46.83;95913.84;6101468;19;1495;-78
2022/10/10 04:24:41;;;;;;;;;;;;;;;17.01;46.72;95920.78;6085684;19;1424;-84
2022/10/10 04:26:44;;;;;;;;;;;;;;;17.04;47.13;95925.78;6101364;19;1043;-77
2022/10/10 04:28:47;;;;;;;;;;;;;;;17.10;46.85;95916.31;6100431;19;1399;-78
2022/10/10 04:30:55;;;;;;;;;;;;;;;17.10;46.60;95919.81;6100783;19;962;-77
2022/10/10 04:32:58;;;;;;;;;;;;;;;17.13;46.74;95916.81;6100326;19;1133;-77
2022/10/10 04:35:01;;;;;;;;;;;;;;;17.10;46.30;95916.31;6097678;19;1470;-77
2022/10/10 04:37:05;;;;;;;;;;;;;;;17.04;46.36;95917.81;6086063;19;1112;-80
2022/10/10 04:39:08;;;;;;;;;;;;;;;17.02;46.45;95922.47;6106776;19;1469;-78
2022/10/10 04:41:11;;;;;;;;;;;;;;;17.05;46.63;95914.19;6094075;19;1849;-77
2022/10/10 04:43:15;;;;;;;;;;;;;;;17.07;46.13;95919.31;6096870;19;859;-77
2022/10/10 04:45:18;;;;;;;;;;;;;;;17.03;46.56;95921.47;6096012;19;1112;-76
2022/10/10 04:47:24;;;;;;;;;;;;;;;17.02;46.54;95917.16;6080154;19;1190;-78
2022/10/10 04:49:28;;;;;;;;;;;;;;;16.99;46.59;95917.50;6096976;19;1065;-77
2022/10/10 04:51:31;;;;;;;;;;;;;;;16.98;46.51;95923.78;6088071;19;1533;-76
2022/10/10 04:53:35;;;;;;;;;;;;;;;16.96;46.20;95931.94;6099025;19;1049;-78
2022/10/10 04:55:38;;;;;;;;;;;;;;;16.93;46.25;95924.31;6096850;19;1087;-77
2022/10/10 04:57:41;;;;;;;;;;;;;;;16.95;46.61;95926.78;6099820;19;977;-78
2022/10/10 04:59:45;;;;;;;;;;;;;;;16.93;46.51;95929.63;6079181;19;1029;-77
2022/10/10 05:01:48;;;;;;;;;;;;;;;16.90;46.45;95929.09;6095791;19;1845;-78
2022/10/10 05:03:55;;;;;;;;;;;;;;;16.83;46.71;95936.09;6097654;19;1295;-77
2022/10/10 05:05:58;;;;;;;;;;;;;;;17.20;45.85;95933.72;6098354;19;1482;-79
2022/10/10 05:08:02;;;;;;;;;;;;;;;17.52;45.89;95932.00;6099857;19;962;-79
2022/10/10 05:10:05;;;;;;;;;;;;;;;17.79;45.47;95935.31;6078382;19;1495;-78
2022/10/10 05:12:09;;;;;;;;;;;;;;;17.97;45.20;95943.03;6100063;19;1031;-78
2022/10/10 05:14:12;;;;;;;;;;;;;;;18.08;45.06;95934.69;6097663;19;1565;-78
2022/10/10 05:16:15;;;;;;;;;;;;;;;18.13;45.02;95937.66;6098144;19;1371;-79
2022/10/10 05:18:19;;;;;;;;;;;;;;;18.21;45.08;95944.75;6101303;19;1017;-80
2022/10/10 05:20:25;;;;;;;;;;;;;;;18.34;45.06;95945.03;6097193;19;1849;-79
2022/10/10 05:22:28;;;;;;;;;;;;;;;18.36;45.50;95943.03;6082982;19;962;-79
2022/10/10 05:24:32;;;;;;;;;;;;;;;18.39;45.72;95947.16;6089301;19;1451;-80
2022/10/10 05:26:35;;;;;;;;;;;;;;;18.42;46.02;95946.81;6102957;19;1376;-83
2022/10/10 05:28:39;;;;;;;;;;;;;;;18.44;46.16;95950.97;6107229;19;1037;-80
2022/10/10 05:30:42;;;;;;;;;;;;;;;18.46;46.00;95951.59;6106249;19;1477;-78
2022/10/10 05:32:46;;;;;;;;;;;;;;;18.49;46.34;95955.75;6079727;19;1440;-79
2022/10/10 05:34:49;;;;;;;;;;;;;;;18.51;46.41;95954.56;6093577;19;1056;-79
2022/10/10 05:36:55;;;;;;;;;;;;;;;18.54;46.19;95959.53;6098721;19;1480;-80
2022/10/10 05:39:00;;;;;;;;;;;;;;;18.62;46.34;95963.16;6098362;19;1418;-83
2022/10/10 05:41:04;;;;;;;;;;;;;;;18.67;46.51;95963.50;6098748;19;1867;-81
2022/10/10 05:43:07;;;;;;;;;;;;;;;18.71;46.23;95968.28;6099872;19;1092;-80
2022/10/10 05:45:11;;;;;;;;;;;;;;;18.71;46.34;95967.47;6080926;19;1404;-81
2022/10/10 05:47:15;;;;;;;;;;;;;;;18.70;46.16;95963.97;6099276;19;1019;-82
2022/10/10 05:49:18;;;;;;;;;;;;;;;18.71;46.41;95968.28;6098157;19;1427;-82
2022/10/10 05:51:22;;;;;;;;;;;;;;;18.74;46.03;95967.09;6098863;19;1097;-81
2022/10/10 05:53:29;;;;;;;;;;;;;;;18.74;46.21;95975.09;6100130;19;1046;-82
2022/10/10 05:55:32;;;;;;;;;;;;;;;18.76;46.22;95978.41;6080284;19;1169;-80
2022/10/10 05:57:36;;;;;;;;;;;;;;;18.75;46.56;95980.25;6090443;19;1042;-79
2022/10/10 05:59:39;;;;;;;;;;;;;;;18.75;46.89;95974.06;6096771;19;1422;-82
2022/10/10 06:01:42;;;;;;;;;;;;;;;18.75;46.80;95977.59;6098340;19;1814;-80
2022/10/10 06:03:51;;;;;;;;;;;;;;;18.76;46.90;95975.75;6099072;19;1294;-81
2022/10/10 06:05:54;;;;;;;;;;;;;;;18.77;46.60;95978.22;6094932;19;1559;-82
2022/10/10 06:07:58;;;;;;;;;;;;;;;18.78;47.04;95979.06;6075346;19;1406;-82
2022/10/10 06:10:04;;;;;;;;;;;;;;;18.79;46.72;95986.03;6097503;19;1603;-82
2022/10/10 06:12:07;;;;;;;;;;;;;;;18.80;47.15;95986.88;6096699;19;1376;-78
2022/10/10 06:14:11;;;;;;;;;;;;;;;18.82;46.84;95988.34;6097750;19;1113;-79
2022/10/10 06:16:14;;;;;;;;;;;;;;;18.86;47.39;95992.31;6096525;19;1053;-80
2022/10/10 06:18:18;;;;;;;;;;;;;;;18.87;47.47;95988.66;6078707;19;1485;-83
2022/10/10 06:20:21;;;;;;;;;;;;;;;18.68;47.89;95995.25;6096459;19;1457;-84
2022/10/10 06:22:24;;;;;;;;;;;;;;;18.82;47.39;95992.84;6097136;19;1845;-81
2022/10/10 06:24:28;;;;;;;;;;;;;;;18.93;47.65;95989.78;6101740;19;1064;-87
2022/10/10 06:26:34;;;;;;;;;;;;;;;18.99;47.32;95991.72;6105668;19;1327;-81
2022/10/10 06:28:38;;;;;;;;;;;;;;;19.04;47.27;95996.53;6104109;19;974;-82
2022/10/10 06:30:41;;;;;;;;;;;;;;;19.10;47.25;96001.97;6094534;19;1553;-80
2022/10/10 06:32:45;;;;;;;;;;;;;;;19.09;47.13;95991.47;6099143;19;1372;-80
2022/10/10 06:34:48;;;;;;;;;;;;;;;19.04;47.06;95996.53;6097195;19;1013;-81
2022/10/10 06:36:52;;;;;;;;;;;;;;;19.07;47.35;95994.34;6098368;19;1005;-79
2022/10/10 06:38:55;;;;;;;;;;;;;;;19.02;47.19;96007.34;6096763;19;1393;-78
2022/10/10 06:41:02;;;;;;;;;;;;;;;19.00;47.22;96004.84;6070559;19;1866;-78
2022/10/10 06:43:10;;;;;;;;;;;;;;;18.99;47.69;95999.72;6097061;19;1072;-79
2022/10/10 06:45:14;;;;;;;;;;;;;;;18.98;47.79;96001.56;6096243;19;1482;-78
2022/10/10 06:47:17;;;;;;;;;;;;;;;19.00;47.58;95996.88;6096572;19;1096;-78
2022/10/10 06:49:21;;;;;;;;;;;;;;;19.00;47.78;95988.06;6097127;19;1375;-79
2022/10/10 06:51:24;;;;;;;;;;;;;;;18.98;47.81;96006.88;6092339;19;915;-78
2022/10/10 06:53:28;;;;;;;;;;;;;;;19.00;47.72;96002.19;6086895;19;1222;-77
2022/10/10 06:55:32;;;;;;;;;;;;;;;19.00;48.03;96010.19;6095478;19;1178;-76
2022/10/10 06:57:35;;;;;;;;;;;;;;;19.00;47.93;96007.53;6094654;19;1466;-79
2022/10/10 06:59:41;;;;;;;;;;;;;;;19.03;48.04;96005.50;6095958;19;1421;-78
2022/10/10 07:01:44;;;;;;;;;;;;;;;19.00;48.12;95996.88;6097717;19;1853;-77
2022/10/10 07:03:48;;;;;;;;;;;;;;;19.01;48.09;96000.38;6077646;19;1458;-77
2022/10/10 07:05:53;;;;;;;;;;;;;;;19.03;47.87;96005.50;6096456;19;1395;-76
2022/10/10 07:07:56;;;;;;;;;;;;;;;19.04;47.71;96001.88;6095772;19;1447;-76
2022/10/10 07:09:59;;;;;;;;;;;;;;;19.07;47.83;95998.84;6095242;19;1411;-77
2022/10/10 07:12:03;;;;;;;;;;;;;;;19.08;47.93;96005.81;6097052;19;1107;-76
2022/10/10 07:14:06;;;;;;;;;;;;;;;19.12;47.85;95997.31;6090365;19;1009;-79
2022/10/10 07:16:12;;;;;;;;;;;;;;;19.11;47.54;96000.94;6085551;19;1463;-79
2022/10/10 07:18:16;;;;;;;;;;;;;;;19.08;47.94;96005.81;6095778;19;1143;-78
2022/10/10 07:20:19;;;;;;;;;;;;;;;19.08;47.88;96000.50;6094013;19;1446;-78
2022/10/10 07:22:22;;;;;;;;;;;;;;;19.10;47.90;95998.47;6094945;19;1830;-80
2022/10/10 07:24:26;;;;;;;;;;;;;;;19.08;47.67;96000.50;6094439;19;1553;-78
2022/10/10 07:26:35;;;;;;;;;;;;;;;19.12;48.17;95997.31;6079341;19;1053;-83
2022/10/10 07:28:39;;;;;;;;;;;;;;;19.12;47.73;96001.78;6097678;19;1425;-77
2022/10/10 07:30:43;;;;;;;;;;;;;;;19.15;48.04;96002.28;6100848;19;1412;-79
2022/10/10 07:32:49;;;;;;;;;;;;;;;19.14;47.67;95994.44;6105614;19;1044;-79
2022/10/10 07:34:52;;;;;;;;;;;;;;;19.13;47.93;95998.13;6103500;19;1543;-79
2022/10/10 07:36:56;;;;;;;;;;;;;;;19.13;48.19;95993.63;6102371;19;1036;-79
2022/10/10 07:38:59;;;;;;;;;;;;;;;19.17;48.11;95996.75;6097559;19;1065;-79
2022/10/10 07:41:02;;;;;;;;;;;;;;;19.13;48.17;95987.47;6102975;19;1125;-78
2022/10/10 07:43:06;;;;;;;;;;;;;;;19.12;48.12;95988.47;6099335;19;1853;-77
2022/10/10 07:45:11;;;;;;;;;;;;;;;19.11;47.85;95986.81;6102339;19;1049;-77
2022/10/10 07:47:14;;;;;;;;;;;;;;;19.13;47.88;95992.78;6103374;19;1089;-78
2022/10/10 07:49:20;;;;;;;;;;;;;;;19.14;48.26;95995.28;6081327;19;1419;-77
2022/10/10 07:51:24;;;;;;;;;;;;;;;19.15;48.27;95994.28;6102885;19;1032;-78
2022/10/10 07:53:27;;;;;;;;;;;;;;;19.14;48.27;95991.78;6098925;19;1457;-78
2022/10/10 07:55:31;;;;;;;;;;;;;;;19.14;47.95;95989.94;6101857;19;1126;-77
2022/10/10 07:57:35;;;;;;;;;;;;;;;19.15;48.04;95985.44;6103230;19;1379;-79
2022/10/10 07:59:39;;;;;;;;;;;;;;;19.15;47.83;95980.97;6088384;19;1049;-77
2022/10/10 08:01:42;;;;;;;;;;;;;;;19.15;48.13;95977.44;6092405;19;1845;-78
2022/10/10 08:03:46;;;;;;;;;;;;;;;19.17;47.84;95986.09;6101734;19;1387;-79
2022/10/10 08:05:52;;;;;;;;;;;;;;;19.16;48.03;95981.78;6101956;19;1014;-77
2022/10/10 08:07:55;;;;;;;;;;;;;;;19.19;48.18;95976.09;6102713;19;1099;-78
2022/10/10 08:09:58;;;;;;;;;;;;;;;19.20;48.28;95983.06;6101518;19;1030;-77
2022/10/10 08:12:02;;;;;;;;;;;;;;;19.21;48.09;95977.56;6081750;19;982;-77
2022/10/10 08:14:05;;;;;;;;;;;;;;;19.20;47.98;95975.06;6102660;19;1050;-77
2022/10/10 08:16:09;;;;;;;;;;;;;;;19.20;48.41;95977.75;6102103;19;1507;-77
2022/10/10 08:18:14;;;;;;;;;;;;;;;19.21;48.09;95974.09;6099698;19;1038;-78
2022/10/10 08:20:18;;;;;;;;;;;;;;;19.24;48.46;95983.56;6098857;19;1411;-78
2022/10/10 08:22:23;;;;;;;;;;;;;;;19.23;47.98;95977.38;6091842;19;1832;-79
2022/10/10 08:24:27;;;;;;;;;;;;;;;19.23;48.07;95980.03;6091669;19;1021;-79
2022/10/10 08:26:30;;;;;;;;;;;;;;;19.24;48.61;95979.06;6102326;19;1486;-79
2022/10/10 08:28:34;;;;;;;;;;;;;;;19.06;48.62;95978.53;6101512;19;1037;-78
2022/10/10 08:30:42;;;;;;;;;;;;;;;18.80;48.19;95985.03;6104483;19;1131;-76
2022/10/10 08:32:45;;;;;;;;;;;;;;;18.59;48.09;95979.50;6105091;19;1482;-77
2022/10/10 08:34:49;;;;;;;;;;;;;;;18.64;48.19;95982.47;6083253;19;1495;-77
2022/10/10 08:36:52;;;;;;;;;;;;;;;18.65;48.03;95984.09;6108534;19;1040;-78
2022/10/10 08:39:00;;;;;;;;;;;;;;;18.69;48.29;95985.44;6109014;19;1072;-77
2022/10/10 08:41:08;;;;;;;;;;;;;;;19.14;47.33;95984.59;6109262;19;1226;-77
2022/10/10 08:43:20;;;;;;;;;;;;;;;19.22;46.74;95989.06;6100659;19;1835;-78
2022/10/10 08:45:26;;;;;;;;;;;;;;;19.18;46.52;95982.44;6082834;19;1487;-77
2022/10/10 08:47:34;;;;;;;;;;;;;;;19.15;46.33;95983.63;6091567;19;1045;-76
2022/10/10 08:49:40;;;;;;;;;;;;;;;19.14;46.58;95986.44;6101855;19;1045;-78
2022/10/10 08:51:45;;;;;;;;;;;;;;;19.04;46.85;95988.53;6098157;19;1407;-74
2022/10/10 08:53:53;;;;;;;;;;;;;;;19.30;45.67;95985.50;6101258;19;1101;-79
2022/10/10 08:56:00;;;;;;;;;;;;;;;19.28;46.34;95991.00;6099023;19;1407;-81
2022/10/10 08:58:08;;;;;;;;;;;;;;;19.27;46.59;95986.69;6081671;19;1463;-80
2022/10/10 09:00:17;;;;;;;;;;;;;;;19.27;46.56;95993.84;6104492;19;1018;-89
2022/10/10 09:02:26;;;;;;;;;;;;;;;19.27;46.37;95986.69;6099297;19;1837;-81
2022/10/10 09:04:32;;;;;;;;;;;;;;;19.27;46.85;95981.34;6099445;19;1333;-81
2022/10/10 09:06:45;;;;;;;;;;;;;;;19.27;46.91;95984.03;6099661;19;1452;-80
2022/10/10 09:08:50;;;;;;;;;;;;;;;19.29;47.00;95987.34;6080305;19;1372;-80
2022/10/10 09:10:56;;;;;;;;;;;;;;;19.30;46.98;95982.84;6099644;19;1025;-80
2022/10/10 09:13:08;;;;;;;;;;;;;;;19.30;46.76;95986.31;6099147;19;1578;-81
2022/10/10 09:15:15;;;;;;;;;;;;;;;19.29;47.00;95984.69;6100113;19;1466;-81
2022/10/10 09:17:24;;;;;;;;;;;;;;;19.30;47.04;95982.84;6101331;19;1060;-81
2022/10/10 09:19:36;;;;;;;;;;;;;;;19.38;46.59;95988.91;6091464;19;1045;-82
2022/10/10 09:21:41;;;;;;;;;;;;;;;19.43;47.21;95986.56;6096758;19;1002;-83
2022/10/10 09:23:48;;;;;;;;;;;;;;;19.49;46.34;95992.16;6098465;19;1833;-79
2022/10/10 09:25:54;;;;;;;;;;;;;;;19.48;46.20;95990.50;6100970;19;1156;-82
2022/10/10 09:28:02;;;;;;;;;;;;;;;19.47;46.77;95994.19;6101539;19;1144;-82
2022/10/10 09:30:12;;;;;;;;;;;;;;;19.47;46.52;95996.84;6101045;19;954;-79
2022/10/10 09:32:17;;;;;;;;;;;;;;;19.44;46.69;95995.38;6082923;19;1020;-80
2022/10/10 09:34:24;;;;;;;;;;;;;;;19.42;46.73;95986.72;6099089;19;1568;-80
2022/10/10 09:36:32;;;;;;;;;;;;;;;19.41;46.76;95993.88;6098505;19;1132;-82
2022/10/10 09:38:39;;;;;;;;;;;;;;;19.50;47.12;95993.81;6099305;19;1402;-81
2022/10/10 09:40:46;;;;;;;;;;;;;;;19.51;46.97;95990.13;6100899;19;1210;-82
2022/10/10 09:42:49;;;;;;;;;;;;;;;19.53;46.79;96002.31;6071003;19;1843;-82
2022/10/10 09:44:53;;;;;;;;;;;;;;;19.51;46.92;95996.28;6099777;19;1134;-82
2022/10/10 09:46:59;;;;;;;;;;;;;;;19.53;47.22;95996.16;6098676;19;1399;-81
2022/10/10 09:49:03;;;;;;;;;;;;;;;19.51;47.40;95996.28;6098461;19;1391;-82
2022/10/10 09:51:07;;;;;;;;;;;;;;;19.50;47.53;95994.66;6097070;19;1600;-82
2022/10/10 09:53:14;;;;;;;;;;;;;;;19.54;47.07;95995.13;6086325;19;1032;-84
2022/10/10 09:55:23;;;;;;;;;;;;;;;19.58;47.00;95989.28;6088095;19;1606;-81
2022/10/10 09:57:28;;;;;;;;;;;;;;;19.59;47.22;95992.75;6100442;19;1128;-81
2022/10/10 09:59:39;;;;;;;;;;;;;;;19.53;47.42;95994.31;6098665;19;1546;-81
2022/10/10 10:01:42;;;;;;;;;;;;;;;19.54;47.68;95990.63;6099382;19;1403;-80
2022/10/10 10:04:07;;;;;;;;;;;;;;;19.59;47.51;95992.75;6097746;19;1826;-80
2022/10/10 10:06:13;;;;;;;;;;;;;;;19.56;47.58;95988.63;6089267;19;1152;-80
2022/10/10 10:08:21;;;;;;;;;;;;;;;19.59;47.24;95982.09;6106903;19;1038;-80
2022/10/10 10:10:26;;;;;;;;;;;;;;;19.55;47.53;95978.13;6107055;19;1095;-81
2022/10/10 10:12:32;;;;;;;;;;;;;;;19.50;47.97;95978.66;6108984;19;1031;-81
2022/10/10 10:14:38;;;;;;;;;;;;;;;19.44;47.58;95980.19;6108695;19;1066;-80
2022/10/10 10:16:41;;;;;;;;;;;;;;;19.45;47.74;95978.34;6089021;19;1006;-81
2022/10/10 10:18:45;;;;;;;;;;;;;;;19.43;47.65;95973.22;6099723;19;1518;-81
2022/10/10 10:20:53;;;;;;;;;;;;;;;19.44;48.04;95972.19;6098068;19;1633;-81
2022/10/10 10:22:56;;;;;;;;;;;;;;;19.43;47.71;95981.22;6097671;19;1846;-83
2022/10/10 10:25:00;;;;;;;;;;;;;;;19.50;47.71;95980.50;6097612;19;1119;-82
2022/10/10 10:27:11;;;;;;;;;;;;;;;19.58;47.82;95972.44;6095851;19;1408;-84
2022/10/10 10:29:30;;;;;;;;;;;;;;;19.65;47.60;95970.69;6089329;19;1032;-81
2022/10/10 10:31:53;;;;;;;;;;;;;;;19.63;47.78;95968.22;6099179;19;1124;-82
2022/10/10 10:34:02;;;;;;;;;;;;;;;19.65;47.37;95966.19;6099479;19;1380;-82
2022/10/10 10:36:12;;;;;;;;;;;;;;;19.63;47.69;95967.38;6099244;19;1457;-81
2022/10/10 10:38:24;;;;;;;;;;;;;;;19.61;47.97;95964.09;6100296;19;1128;-80
2022/10/10 10:40:31;;;;;;;;;;;;;;;19.59;47.94;95966.09;6083136;19;1056;-83
2022/10/10 10:42:43;;;;;;;;;;;;;;;19.60;47.93;95960.56;6098177;19;1845;-83
2022/10/10 10:44:51;;;;;;;;;;;;;;;19.59;47.90;95966.09;6097263;19;1510;-80
2022/10/10 10:47:01;;;;;;;;;;;;;;;19.60;47.87;95965.06;6097329;19;1569;-80
2022/10/10 10:49:11;;;;;;;;;;;;;;;19.60;47.88;95957.91;6093330;19;1022;-80
2022/10/10 10:51:25;;;;;;;;;;;;;;;19.62;47.81;95960.41;6080374;19;1026;-81
2022/10/10 10:53:33;;;;;;;;;;;;;;;19.61;47.89;95959.56;6106127;19;990;-81
2022/10/10 10:55:40;;;;;;;;;;;;;;;19.59;48.09;95956.25;6104013;19;1466;-81
2022/10/10 10:57:52;;;;;;;;;;;;;;;19.60;47.83;95965.06;6105326;19;1156;-81
2022/10/10 11:00:02;;;;;;;;;;;;;;;19.60;48.10;95959.75;6095820;19;1044;-80
2022/10/10 11:02:17;;;;;;;;;;;;;;;19.56;47.87;95961.97;6082097;19;1068;-81